sensor_id;sensor_type;location;lat;lon;timestamp;pressure;altitude;pressure_sealevel;temperature;humidity
15694;BME280;7947;48.834;9.132;2023-07-16T00:01:31;98028.69;;;22.18;87.79
15694;BME280;7947;48.834;9.132;2023-07-16T00:04:35;98022.06;;;22.04;88.54
15694;BME280;7947;48.834;9.132;2023-07-16T00:07:39;98038.28;;;21.97;89.27
15694;BME280;7947;48.834;9.132;2023-07-16T00:10:42;98038.75;;;21.99;88.94
15694;BME280;7947;48.834;9.132;2023-07-16T00:13:45;98033.16;;;21.95;88.66
15694;BME280;7947;48.834;9.132;2023-07-16T00:16:49;98031.94;;;21.93;88.07
15694;BME280;7947;48.834;9.132;2023-07-16T00:19:52;98041.09;;;21.85;87.81
15694;BME280;7947;48.834;9.132;2023-07-16T00:22:56;98033.81;;;21.77;88.36
15694;BME280;7947;48.834;9.132;2023-07-16T00:25:59;98022.09;;;21.76;88.05
15694;BME280;7947;48.834;9.132;2023-07-16T00:29:02;98016.38;;;21.66;88.41
15694;BME280;7947;48.834;9.132;2023-07-16T00:32:06;98025.25;;;21.63;88.29
15694;BME280;7947;48.834;9.132;2023-07-16T00:35:08;98019.59;;;21.55;87.84
15694;BME280;7947;48.834;9.132;2023-07-16T00:38:13;98041.56;;;21.47;88.51
15694;BME280;7947;48.834;9.132;2023-07-16T00:41:16;98052.41;;;21.43;88.59
15694;BME280;7947;48.834;9.132;2023-07-16T00:44:18;98046.03;;;21.39;89.09
15694;BME280;7947;48.834;9.132;2023-07-16T00:47:21;98041.28;;;21.36;89.43
15694;BME280;7947;48.834;9.132;2023-07-16T00:50:25;98046.84;;;21.40;89.43
15694;BME280;7947;48.834;9.132;2023-07-16T00:53:30;98032.41;;;21.39;89.77
15694;BME280;7947;48.834;9.132;2023-07-16T00:56:33;98034.00;;;21.40;89.98
15694;BME280;7947;48.834;9.132;2023-07-16T00:59:36;98036.13;;;21.47;90.40
15694;BME280;7947;48.834;9.132;2023-07-16T01:02:39;98029.09;;;21.46;90.18
15694;BME280;7947;48.834;9.132;2023-07-16T01:05:47;98058.03;;;21.50;91.10
15694;BME280;7947;48.834;9.132;2023-07-16T01:08:57;98078.47;;;21.56;91.10
15694;BME280;7947;48.834;9.132;2023-07-16T01:12:01;98081.56;;;21.55;90.84
15694;BME280;7947;48.834;9.132;2023-07-16T01:15:05;98090.56;;;21.55;91.04
15694;BME280;7947;48.834;9.132;2023-07-16T01:18:08;98101.38;;;21.52;90.74
15694;BME280;7947;48.834;9.132;2023-07-16T01:21:11;98094.13;;;21.44;91.03
15694;BME280;7947;48.834;9.132;2023-07-16T01:24:44;98093.41;;;21.47;91.72
15694;BME280;7947;48.834;9.132;2023-07-16T01:28:27;98089.13;;;21.46;91.23
15694;BME280;7947;48.834;9.132;2023-07-16T01:31:37;98096.75;;;21.40;91.46
15694;BME280;7947;48.834;9.132;2023-07-16T01:34:41;98103.78;;;21.41;91.71
15694;BME280;7947;48.834;9.132;2023-07-16T01:37:45;98092.41;;;21.39;91.40
15694;BME280;7947;48.834;9.132;2023-07-16T01:40:48;98107.66;;;21.40;91.28
15694;BME280;7947;48.834;9.132;2023-07-16T01:43:51;98131.06;;;21.41;90.98
15694;BME280;7947;48.834;9.132;2023-07-16T01:47:09;98116.88;;;21.36;90.53
15694;BME280;7947;48.834;9.132;2023-07-16T01:50:15;98108.34;;;21.37;90.46
15694;BME280;7947;48.834;9.132;2023-07-16T01:53:18;98100.50;;;21.36;88.94
15694;BME280;7947;48.834;9.132;2023-07-16T01:56:21;98073.94;;;21.33;89.62
15694;BME280;7947;48.834;9.132;2023-07-16T01:59:24;98092.91;;;21.29;89.51
15694;BME280;7947;48.834;9.132;2023-07-16T02:02:28;98107.94;;;21.23;88.01
15694;BME280;7947;48.834;9.132;2023-07-16T02:05:32;98125.91;;;21.12;87.77
15694;BME280;7947;48.834;9.132;2023-07-16T02:08:34;98112.16;;;21.09;87.96
15694;BME280;7947;48.834;9.132;2023-07-16T02:11:37;98120.13;;;21.02;88.18
15694;BME280;7947;48.834;9.132;2023-07-16T02:14:40;98122.59;;;20.95;88.70
15694;BME280;7947;48.834;9.132;2023-07-16T02:17:44;98109.75;;;20.95;88.53
15694;BME280;7947;48.834;9.132;2023-07-16T02:20:48;98111.00;;;20.98;87.12
15694;BME280;7947;48.834;9.132;2023-07-16T02:23:50;98114.66;;;20.90;87.21
15694;BME280;7947;48.834;9.132;2023-07-16T02:26:53;98115.44;;;20.90;86.89
15694;BME280;7947;48.834;9.132;2023-07-16T02:29:56;98109.75;;;20.83;86.82
15694;BME280;7947;48.834;9.132;2023-07-16T02:33:00;98126.00;;;20.80;86.62
15694;BME280;7947;48.834;9.132;2023-07-16T02:36:04;98150.53;;;20.80;85.94
15694;BME280;7947;48.834;9.132;2023-07-16T02:39:07;98149.63;;;20.76;86.59
15694;BME280;7947;48.834;9.132;2023-07-16T02:42:10;98132.47;;;20.75;87.05
15694;BME280;7947;48.834;9.132;2023-07-16T02:45:13;98132.16;;;20.77;87.46
15694;BME280;7947;48.834;9.132;2023-07-16T02:48:17;98125.91;;;20.76;86.96
15694;BME280;7947;48.834;9.132;2023-07-16T02:51:20;98131.25;;;20.73;86.52
15694;BME280;7947;48.834;9.132;2023-07-16T02:54:23;98121.59;;;20.63;86.90
15694;BME280;7947;48.834;9.132;2023-07-16T02:57:26;98112.59;;;20.62;86.28
15694;BME280;7947;48.834;9.132;2023-07-16T03:00:29;98112.16;;;20.60;85.75
15694;BME280;7947;48.834;9.132;2023-07-16T03:03:34;98142.94;;;20.61;85.90
15694;BME280;7947;48.834;9.132;2023-07-16T03:06:37;98138.38;;;20.53;85.91
15694;BME280;7947;48.834;9.132;2023-07-16T03:09:39;98142.44;;;20.47;86.95
15694;BME280;7947;48.834;9.132;2023-07-16T03:12:42;98151.16;;;20.40;88.48
15694;BME280;7947;48.834;9.132;2023-07-16T03:15:45;98157.88;;;20.43;88.47
15694;BME280;7947;48.834;9.132;2023-07-16T03:18:49;98148.59;;;20.44;88.58
15694;BME280;7947;48.834;9.132;2023-07-16T03:21:53;98149.59;;;20.39;88.56
15694;BME280;7947;48.834;9.132;2023-07-16T03:24:55;98166.47;;;20.33;88.28
15694;BME280;7947;48.834;9.132;2023-07-16T03:27:58;98172.94;;;20.28;87.88
15694;BME280;7947;48.834;9.132;2023-07-16T03:31:01;98165.44;;;20.25;87.84
15694;BME280;7947;48.834;9.132;2023-07-16T03:34:06;98154.44;;;20.22;87.41
15694;BME280;7947;48.834;9.132;2023-07-16T03:37:09;98178.25;;;20.25;87.16
15694;BME280;7947;48.834;9.132;2023-07-16T03:40:13;98196.44;;;20.33;85.93
15694;BME280;7947;48.834;9.132;2023-07-16T03:43:17;98191.13;;;20.36;85.94
15694;BME280;7947;48.834;9.132;2023-07-16T03:46:20;98190.00;;;20.37;86.68
15694;BME280;7947;48.834;9.132;2023-07-16T03:49:25;98206.56;;;20.32;87.29
15694;BME280;7947;48.834;9.132;2023-07-16T03:52:28;98215.50;;;20.33;87.74
15694;BME280;7947;48.834;9.132;2023-07-16T03:55:31;98229.94;;;20.33;87.53
15694;BME280;7947;48.834;9.132;2023-07-16T03:58:33;98238.91;;;20.34;88.35
15694;BME280;7947;48.834;9.132;2023-07-16T04:01:36;98255.31;;;20.25;86.71
15694;BME280;7947;48.834;9.132;2023-07-16T04:04:41;98254.50;;;20.25;84.76
15694;BME280;7947;48.834;9.132;2023-07-16T04:07:43;98256.03;;;20.14;83.21
15694;BME280;7947;48.834;9.132;2023-07-16T04:10:46;98269.16;;;20.20;83.54
15694;BME280;7947;48.834;9.132;2023-07-16T04:13:49;98258.72;;;20.22;82.25
15694;BME280;7947;48.834;9.132;2023-07-16T04:16:52;98260.19;;;20.20;82.00
15694;BME280;7947;48.834;9.132;2023-07-16T04:19:57;98253.66;;;20.12;84.36
15694;BME280;7947;48.834;9.132;2023-07-16T04:23:00;98256.72;;;20.11;85.23
15694;BME280;7947;48.834;9.132;2023-07-16T04:26:03;98239.81;;;20.17;84.94
15694;BME280;7947;48.834;9.132;2023-07-16T04:29:06;98232.31;;;20.14;84.92
15694;BME280;7947;48.834;9.132;2023-07-16T04:32:09;98233.44;;;20.13;85.63
15694;BME280;7947;48.834;9.132;2023-07-16T04:35:13;98260.38;;;20.15;86.38
15694;BME280;7947;48.834;9.132;2023-07-16T04:38:16;98273.34;;;20.09;86.92
15694;BME280;7947;48.834;9.132;2023-07-16T04:41:19;98274.03;;;20.06;86.88
15694;BME280;7947;48.834;9.132;2023-07-16T04:44:22;98276.88;;;20.10;87.48
15694;BME280;7947;48.834;9.132;2023-07-16T04:47:25;98293.22;;;20.10;87.50
15694;BME280;7947;48.834;9.132;2023-07-16T04:50:29;98295.13;;;20.09;87.05
15694;BME280;7947;48.834;9.132;2023-07-16T04:53:32;98304.97;;;20.02;87.80
15694;BME280;7947;48.834;9.132;2023-07-16T04:56:35;98301.41;;;19.89;87.85
15694;BME280;7947;48.834;9.132;2023-07-16T04:59:37;98298.19;;;19.87;88.26
15694;BME280;7947;48.834;9.132;2023-07-16T05:02:40;98299.19;;;19.83;88.63
15694;BME280;7947;48.834;9.132;2023-07-16T05:05:44;98297.28;;;19.83;87.90
15694;BME280;7947;48.834;9.132;2023-07-16T05:08:47;98295.75;;;19.94;87.69
15694;BME280;7947;48.834;9.132;2023-07-16T05:11:50;98301.78;;;20.00;87.65
15694;BME280;7947;48.834;9.132;2023-07-16T05:14:53;98299.53;;;20.02;87.55
15694;BME280;7947;48.834;9.132;2023-07-16T05:17:56;98301.13;;;20.03;87.48
15694;BME280;7947;48.834;9.132;2023-07-16T05:21:01;98295.34;;;20.04;87.48
15694;BME280;7947;48.834;9.132;2023-07-16T05:24:04;98295.88;;;19.98;86.57
15694;BME280;7947;48.834;9.132;2023-07-16T05:27:07;98298.94;;;19.96;86.25
15694;BME280;7947;48.834;9.132;2023-07-16T05:30:10;98310.50;;;19.93;86.40
15694;BME280;7947;48.834;9.132;2023-07-16T05:33:13;98305.06;;;19.93;86.09
15694;BME280;7947;48.834;9.132;2023-07-16T05:36:17;98301.31;;;19.98;85.42
15694;BME280;7947;48.834;9.132;2023-07-16T05:39:21;98306.25;;;20.04;85.04
15694;BME280;7947;48.834;9.132;2023-07-16T05:42:24;98326.69;;;20.10;84.40
15694;BME280;7947;48.834;9.132;2023-07-16T05:45:29;98318.50;;;20.19;84.09
15694;BME280;7947;48.834;9.132;2023-07-16T05:48:32;98329.78;;;20.29;82.61
15694;BME280;7947;48.834;9.132;2023-07-16T05:51:36;98333.44;;;20.33;82.96
15694;BME280;7947;48.834;9.132;2023-07-16T05:54:39;98336.50;;;20.32;82.85
15694;BME280;7947;48.834;9.132;2023-07-16T05:57:42;98350.94;;;20.32;80.66
15694;BME280;7947;48.834;9.132;2023-07-16T06:00:44;98328.94;;;20.37;81.78
15694;BME280;7947;48.834;9.132;2023-07-16T06:03:47;98326.00;;;20.42;81.70
15694;BME280;7947;48.834;9.132;2023-07-16T06:06:52;98312.94;;;20.36;80.56
15694;BME280;7947;48.834;9.132;2023-07-16T06:09:54;98304.88;;;20.39;80.89
15694;BME280;7947;48.834;9.132;2023-07-16T06:12:57;98309.34;;;20.44;80.03
15694;BME280;7947;48.834;9.132;2023-07-16T06:16:00;98326.72;;;20.51;80.34
15694;BME280;7947;48.834;9.132;2023-07-16T06:19:03;98326.72;;;20.51;80.58
15694;BME280;7947;48.834;9.132;2023-07-16T06:22:08;98346.34;;;20.45;80.52
15694;BME280;7947;48.834;9.132;2023-07-16T06:25:11;98345.81;;;20.51;78.14
15694;BME280;7947;48.834;9.132;2023-07-16T06:28:14;98329.75;;;20.50;77.11
15694;BME280;7947;48.834;9.132;2023-07-16T06:31:17;98336.94;;;20.54;77.19
15694;BME280;7947;48.834;9.132;2023-07-16T06:34:20;98330.84;;;20.57;76.68
15694;BME280;7947;48.834;9.132;2023-07-16T06:37:24;98341.88;;;20.61;77.54
15694;BME280;7947;48.834;9.132;2023-07-16T06:40:28;98340.91;;;20.78;80.15
15694;BME280;7947;48.834;9.132;2023-07-16T06:43:31;98344.78;;;20.89;79.79
15694;BME280;7947;48.834;9.132;2023-07-16T06:46:34;98339.34;;;20.89;78.45
15694;BME280;7947;48.834;9.132;2023-07-16T06:49:37;98333.00;;;20.97;79.07
15694;BME280;7947;48.834;9.132;2023-07-16T06:52:41;98329.75;;;21.03;77.75
15694;BME280;7947;48.834;9.132;2023-07-16T06:55:47;98332.22;;;20.96;75.19
15694;BME280;7947;48.834;9.132;2023-07-16T06:58:50;98331.59;;;21.11;75.64
15694;BME280;7947;48.834;9.132;2023-07-16T07:01:53;98345.28;;;21.23;76.14
15694;BME280;7947;48.834;9.132;2023-07-16T07:04:56;98340.97;;;21.34;75.66
15694;BME280;7947;48.834;9.132;2023-07-16T07:08:01;98344.47;;;21.47;75.69
15694;BME280;7947;48.834;9.132;2023-07-16T07:11:04;98343.81;;;21.62;72.27
15694;BME280;7947;48.834;9.132;2023-07-16T07:14:10;98345.66;;;21.82;73.57
15694;BME280;7947;48.834;9.132;2023-07-16T07:17:13;98318.88;;;22.12;71.70
15694;BME280;7947;48.834;9.132;2023-07-16T07:20:16;98333.84;;;22.30;68.45
15694;BME280;7947;48.834;9.132;2023-07-16T07:23:20;98332.63;;;22.55;66.17
15694;BME280;7947;48.834;9.132;2023-07-16T07:26:25;98320.81;;;22.79;63.08
15694;BME280;7947;48.834;9.132;2023-07-16T07:29:28;98324.91;;;23.00;64.16
15694;BME280;7947;48.834;9.132;2023-07-16T07:32:31;98330.56;;;23.07;63.61
15694;BME280;7947;48.834;9.132;2023-07-16T07:35:34;98338.78;;;23.07;62.57
15694;BME280;7947;48.834;9.132;2023-07-16T07:38:38;98346.69;;;22.81;62.68
15694;BME280;7947;48.834;9.132;2023-07-16T07:41:41;98348.19;;;22.94;64.15
15694;BME280;7947;48.834;9.132;2023-07-16T07:44:44;98346.34;;;22.98;63.31
15694;BME280;7947;48.834;9.132;2023-07-16T07:47:47;98340.88;;;22.98;63.16
15694;BME280;7947;48.834;9.132;2023-07-16T07:50:50;98341.13;;;22.78;63.48
15694;BME280;7947;48.834;9.132;2023-07-16T07:53:55;98351.56;;;22.60;63.33
15694;BME280;7947;48.834;9.132;2023-07-16T07:57:00;98353.28;;;22.40;62.30
15694;BME280;7947;48.834;9.132;2023-07-16T08:00:07;98361.84;;;22.39;62.55
15694;BME280;7947;48.834;9.132;2023-07-16T08:03:13;98363.19;;;22.45;63.29
15694;BME280;7947;48.834;9.132;2023-07-16T08:06:16;98357.91;;;22.64;63.65
15694;BME280;7947;48.834;9.132;2023-07-16T08:09:21;98368.16;;;22.95;62.58
15694;BME280;7947;48.834;9.132;2023-07-16T08:12:24;98354.94;;;23.12;59.97
15694;BME280;7947;48.834;9.132;2023-07-16T08:15:27;98365.00;;;23.36;58.99
15694;BME280;7947;48.834;9.132;2023-07-16T08:18:30;98354.56;;;23.42;57.70
15694;BME280;7947;48.834;9.132;2023-07-16T08:21:33;98344.63;;;23.21;58.02
15694;BME280;7947;48.834;9.132;2023-07-16T08:24:37;98357.66;;;22.97;58.38
15694;BME280;7947;48.834;9.132;2023-07-16T08:27:40;98356.63;;;23.01;58.05
15694;BME280;7947;48.834;9.132;2023-07-16T08:30:46;98336.63;;;23.28;56.52
15694;BME280;7947;48.834;9.132;2023-07-16T08:33:49;98324.47;;;23.42;55.29
15694;BME280;7947;48.834;9.132;2023-07-16T08:36:52;98317.66;;;23.51;54.64
15694;BME280;7947;48.834;9.132;2023-07-16T08:39:56;98336.00;;;23.51;54.92
15694;BME280;7947;48.834;9.132;2023-07-16T08:42:59;98331.16;;;23.44;55.81
15694;BME280;7947;48.834;9.132;2023-07-16T08:46:02;98326.47;;;23.45;55.42
15694;BME280;7947;48.834;9.132;2023-07-16T08:49:07;98335.72;;;23.24;54.70
15694;BME280;7947;48.834;9.132;2023-07-16T08:52:10;98339.06;;;23.18;54.02
15694;BME280;7947;48.834;9.132;2023-07-16T08:55:16;98339.13;;;23.06;54.81
15694;BME280;7947;48.834;9.132;2023-07-16T08:58:19;98346.38;;;23.14;55.50
15694;BME280;7947;48.834;9.132;2023-07-16T09:01:24;98358.59;;;23.16;55.31
15694;BME280;7947;48.834;9.132;2023-07-16T09:04:27;98356.09;;;23.11;55.50
15694;BME280;7947;48.834;9.132;2023-07-16T09:07:31;98358.41;;;23.25;55.53
15694;BME280;7947;48.834;9.132;2023-07-16T09:10:35;98354.28;;;23.62;55.91
15694;BME280;7947;48.834;9.132;2023-07-16T09:13:44;98342.69;;;24.00;54.01
15694;BME280;7947;48.834;9.132;2023-07-16T09:16:50;98340.38;;;24.37;53.32
15694;BME280;7947;48.834;9.132;2023-07-16T09:19:53;98343.84;;;24.53;52.25
15694;BME280;7947;48.834;9.132;2023-07-16T09:22:56;98347.41;;;24.72;51.68
15694;BME280;7947;48.834;9.132;2023-07-16T09:26:01;98349.28;;;25.07;53.92
15694;BME280;7947;48.834;9.132;2023-07-16T09:29:05;98350.63;;;25.39;52.17
15694;BME280;7947;48.834;9.132;2023-07-16T09:32:08;98348.44;;;25.48;50.60
15694;BME280;7947;48.834;9.132;2023-07-16T09:35:13;98344.06;;;25.24;49.81
15694;BME280;7947;48.834;9.132;2023-07-16T09:38:17;98342.34;;;24.93;52.13
15694;BME280;7947;48.834;9.132;2023-07-16T09:41:22;98343.97;;;24.75;50.88
15694;BME280;7947;48.834;9.132;2023-07-16T09:44:25;98341.28;;;24.79;52.86
15694;BME280;7947;48.834;9.132;2023-07-16T09:47:27;98327.69;;;24.86;52.67
15694;BME280;7947;48.834;9.132;2023-07-16T09:50:32;98330.25;;;24.75;53.09
15694;BME280;7947;48.834;9.132;2023-07-16T09:53:36;98342.56;;;24.66;53.22
15694;BME280;7947;48.834;9.132;2023-07-16T09:56:44;98334.97;;;24.59;53.82
15694;BME280;7947;48.834;9.132;2023-07-16T09:59:49;98333.09;;;24.63;52.40
15694;BME280;7947;48.834;9.132;2023-07-16T10:02:54;98341.47;;;24.89;51.65
15694;BME280;7947;48.834;9.132;2023-07-16T10:06:05;98327.53;;;25.21;52.10
15694;BME280;7947;48.834;9.132;2023-07-16T10:09:08;98332.59;;;25.60;50.08
15694;BME280;7947;48.834;9.132;2023-07-16T10:12:17;98339.84;;;25.72;50.80
15694;BME280;7947;48.834;9.132;2023-07-16T10:15:25;98345.84;;;25.55;50.49
15694;BME280;7947;48.834;9.132;2023-07-16T10:18:28;98335.28;;;25.38;50.23
15694;BME280;7947;48.834;9.132;2023-07-16T10:21:37;98336.31;;;25.07;50.81
15694;BME280;7947;48.834;9.132;2023-07-16T10:24:40;98332.81;;;25.07;52.05
15694;BME280;7947;48.834;9.132;2023-07-16T10:27:44;98336.56;;;25.40;50.48
15694;BME280;7947;48.834;9.132;2023-07-16T10:30:49;98332.44;;;25.76;48.88
15694;BME280;7947;48.834;9.132;2023-07-16T10:33:59;98331.34;;;26.07;49.07
15694;BME280;7947;48.834;9.132;2023-07-16T10:37:02;98330.19;;;26.37;47.82
15694;BME280;7947;48.834;9.132;2023-07-16T10:40:10;98315.22;;;26.35;44.48
15694;BME280;7947;48.834;9.132;2023-07-16T10:43:15;98320.19;;;26.22;45.92
15694;BME280;7947;48.834;9.132;2023-07-16T10:46:19;98312.13;;;26.36;44.57
15694;BME280;7947;48.834;9.132;2023-07-16T10:49:27;98318.16;;;26.49;45.04
15694;BME280;7947;48.834;9.132;2023-07-16T10:52:29;98315.19;;;26.31;43.55
15694;BME280;7947;48.834;9.132;2023-07-16T10:55:32;98313.97;;;26.29;45.17
15694;BME280;7947;48.834;9.132;2023-07-16T10:58:41;98315.84;;;26.51;45.84
15694;BME280;7947;48.834;9.132;2023-07-16T11:01:45;98304.59;;;26.63;43.94
15694;BME280;7947;48.834;9.132;2023-07-16T11:04:49;98307.44;;;26.70;43.21
15694;BME280;7947;48.834;9.132;2023-07-16T11:07:54;98307.94;;;26.46;43.98
15694;BME280;7947;48.834;9.132;2023-07-16T11:10:57;98318.44;;;26.40;45.74
15694;BME280;7947;48.834;9.132;2023-07-16T11:14:04;98313.22;;;26.61;45.99
15694;BME280;7947;48.834;9.132;2023-07-16T11:17:08;98302.91;;;26.85;48.41
15694;BME280;7947;48.834;9.132;2023-07-16T11:20:11;98294.06;;;27.05;45.87
15694;BME280;7947;48.834;9.132;2023-07-16T11:23:14;98287.47;;;27.17;46.99
15694;BME280;7947;48.834;9.132;2023-07-16T11:26:17;98288.72;;;27.23;45.30
15694;BME280;7947;48.834;9.132;2023-07-16T11:29:22;98289.69;;;27.01;43.88
15694;BME280;7947;48.834;9.132;2023-07-16T11:32:27;98300.69;;;26.67;44.05
15694;BME280;7947;48.834;9.132;2023-07-16T11:35:30;98311.78;;;26.41;45.46
15694;BME280;7947;48.834;9.132;2023-07-16T11:38:36;98305.25;;;26.23;45.25
15694;BME280;7947;48.834;9.132;2023-07-16T11:41:38;98300.06;;;26.15;45.54
15694;BME280;7947;48.834;9.132;2023-07-16T11:44:43;98292.34;;;26.27;45.48
15694;BME280;7947;48.834;9.132;2023-07-16T11:47:51;98291.25;;;26.32;45.66
15694;BME280;7947;48.834;9.132;2023-07-16T11:50:54;98295.63;;;26.36;46.30
15694;BME280;7947;48.834;9.132;2023-07-16T11:53:57;98279.03;;;26.29;45.72
15694;BME280;7947;48.834;9.132;2023-07-16T11:56:59;98274.94;;;26.49;46.92
15694;BME280;7947;48.834;9.132;2023-07-16T12:00:05;98279.72;;;26.89;47.46
15694;BME280;7947;48.834;9.132;2023-07-16T12:03:08;98276.31;;;27.03;45.42
15694;BME280;7947;48.834;9.132;2023-07-16T12:06:11;98272.81;;;27.02;42.97
15694;BME280;7947;48.834;9.132;2023-07-16T12:09:14;98263.81;;;27.09;42.01
15694;BME280;7947;48.834;9.132;2023-07-16T12:12:17;98259.63;;;27.25;43.61
15694;BME280;7947;48.834;9.132;2023-07-16T12:15:21;98256.22;;;27.39;44.15
15694;BME280;7947;48.834;9.132;2023-07-16T12:18:24;98252.78;;;27.09;42.29
15694;BME280;7947;48.834;9.132;2023-07-16T12:21:27;98247.84;;;26.85;43.94
15694;BME280;7947;48.834;9.132;2023-07-16T12:24:29;98256.28;;;27.02;43.50
15694;BME280;7947;48.834;9.132;2023-07-16T12:27:32;98237.06;;;27.09;43.18
15694;BME280;7947;48.834;9.132;2023-07-16T12:30:36;98237.63;;;27.29;45.02
15694;BME280;7947;48.834;9.132;2023-07-16T12:33:39;98233.06;;;27.47;44.20
15694;BME280;7947;48.834;9.132;2023-07-16T12:36:42;98222.22;;;27.75;43.10
15694;BME280;7947;48.834;9.132;2023-07-16T12:39:45;98234.91;;;27.94;45.18
15694;BME280;7947;48.834;9.132;2023-07-16T12:42:48;98235.44;;;28.13;41.53
15694;BME280;7947;48.834;9.132;2023-07-16T12:45:52;98237.88;;;28.36;40.64
15694;BME280;7947;48.834;9.132;2023-07-16T12:48:55;98228.84;;;28.42;40.65
15694;BME280;7947;48.834;9.132;2023-07-16T12:51:57;98237.53;;;28.37;41.95
15694;BME280;7947;48.834;9.132;2023-07-16T12:55:00;98240.28;;;28.37;42.42
15694;BME280;7947;48.834;9.132;2023-07-16T12:58:03;98242.75;;;28.57;40.63
15694;BME280;7947;48.834;9.132;2023-07-16T13:01:07;98230.16;;;28.70;40.02
15694;BME280;7947;48.834;9.132;2023-07-16T13:04:10;98230.94;;;28.67;37.93
15694;BME280;7947;48.834;9.132;2023-07-16T13:07:13;98236.03;;;28.58;39.86
15694;BME280;7947;48.834;9.132;2023-07-16T13:10:16;98224.63;;;28.63;42.22
15694;BME280;7947;48.834;9.132;2023-07-16T13:13:24;98221.78;;;28.45;41.01
15694;BME280;7947;48.834;9.132;2023-07-16T13:16:29;98226.50;;;28.51;41.20
15694;BME280;7947;48.834;9.132;2023-07-16T13:19:32;98224.53;;;28.52;40.97
15694;BME280;7947;48.834;9.132;2023-07-16T13:22:35;98212.72;;;28.51;41.61
15694;BME280;7947;48.834;9.132;2023-07-16T13:25:38;98217.09;;;28.60;41.89
15694;BME280;7947;48.834;9.132;2023-07-16T13:28:41;98212.78;;;28.62;41.71
15694;BME280;7947;48.834;9.132;2023-07-16T13:31:45;98213.53;;;28.59;42.51
15694;BME280;7947;48.834;9.132;2023-07-16T13:34:48;98209.63;;;28.71;41.70
15694;BME280;7947;48.834;9.132;2023-07-16T13:37:51;98215.16;;;28.71;38.31
15694;BME280;7947;48.834;9.132;2023-07-16T13:40:53;98209.22;;;28.58;40.69
15694;BME280;7947;48.834;9.132;2023-07-16T13:43:56;98204.91;;;28.61;43.28
15694;BME280;7947;48.834;9.132;2023-07-16T13:47:00;98204.09;;;28.64;39.83
15694;BME280;7947;48.834;9.132;2023-07-16T13:50:04;98196.22;;;28.59;38.24
15694;BME280;7947;48.834;9.132;2023-07-16T13:53:07;98204.03;;;28.42;40.15
15694;BME280;7947;48.834;9.132;2023-07-16T13:56:10;98200.13;;;28.58;40.97
15694;BME280;7947;48.834;9.132;2023-07-16T13:59:14;98215.53;;;28.73;41.45
15694;BME280;7947;48.834;9.132;2023-07-16T14:02:18;98206.91;;;28.95;40.83
15694;BME280;7947;48.834;9.132;2023-07-16T14:05:21;98212.03;;;29.00;39.97
15694;BME280;7947;48.834;9.132;2023-07-16T14:08:24;98212.84;;;28.94;40.72
15694;BME280;7947;48.834;9.132;2023-07-16T14:11:29;98207.66;;;28.61;40.43
15694;BME280;7947;48.834;9.132;2023-07-16T14:14:31;98202.06;;;28.46;41.04
15694;BME280;7947;48.834;9.132;2023-07-16T14:17:36;98215.06;;;28.39;42.32
15694;BME280;7947;48.834;9.132;2023-07-16T14:20:38;98209.50;;;28.28;41.42
15694;BME280;7947;48.834;9.132;2023-07-16T14:23:41;98207.50;;;28.18;41.47
15694;BME280;7947;48.834;9.132;2023-07-16T14:26:44;98217.16;;;27.88;42.64
15694;BME280;7947;48.834;9.132;2023-07-16T14:29:48;98204.03;;;27.60;43.41
15694;BME280;7947;48.834;9.132;2023-07-16T14:33:07;98205.50;;;27.47;44.64
15694;BME280;7947;48.834;9.132;2023-07-16T14:36:10;98209.00;;;27.40;44.77
15694;BME280;7947;48.834;9.132;2023-07-16T14:39:13;98213.47;;;27.62;44.24
15694;BME280;7947;48.834;9.132;2023-07-16T14:42:17;98213.25;;;27.89;44.20
15694;BME280;7947;48.834;9.132;2023-07-16T14:45:20;98215.38;;;28.20;44.16
15694;BME280;7947;48.834;9.132;2023-07-16T14:48:24;98214.63;;;28.30;42.63
15694;BME280;7947;48.834;9.132;2023-07-16T14:51:29;98208.75;;;28.45;42.01
15694;BME280;7947;48.834;9.132;2023-07-16T14:54:32;98208.03;;;28.56;42.10
15694;BME280;7947;48.834;9.132;2023-07-16T14:57:37;98207.25;;;28.66;41.95
15694;BME280;7947;48.834;9.132;2023-07-16T15:00:40;98215.16;;;28.71;41.29
15694;BME280;7947;48.834;9.132;2023-07-16T15:03:45;98213.53;;;28.59;39.46
15694;BME280;7947;48.834;9.132;2023-07-16T15:06:47;98211.44;;;28.24;40.21
15694;BME280;7947;48.834;9.132;2023-07-16T15:09:52;98212.53;;;27.99;41.19
15694;BME280;7947;48.834;9.132;2023-07-16T15:12:55;98199.03;;;27.80;42.77
15694;BME280;7947;48.834;9.132;2023-07-16T15:15:58;98205.66;;;27.72;42.69
15694;BME280;7947;48.834;9.132;2023-07-16T15:19:02;98202.56;;;27.84;41.89
15694;BME280;7947;48.834;9.132;2023-07-16T15:22:05;98202.31;;;28.03;42.35
15694;BME280;7947;48.834;9.132;2023-07-16T15:25:10;98190.59;;;28.30;43.11
15694;BME280;7947;48.834;9.132;2023-07-16T15:28:13;98193.38;;;28.51;39.96
15694;BME280;7947;48.834;9.132;2023-07-16T15:31:16;98200.16;;;28.61;39.66
15694;BME280;7947;48.834;9.132;2023-07-16T15:34:22;98200.13;;;28.58;39.73
15694;BME280;7947;48.834;9.132;2023-07-16T15:37:25;98194.63;;;28.54;40.11
15694;BME280;7947;48.834;9.132;2023-07-16T15:40:32;98186.72;;;28.52;39.97
15694;BME280;7947;48.834;9.132;2023-07-16T15:43:35;98180.38;;;28.45;41.36
15694;BME280;7947;48.834;9.132;2023-07-16T15:46:38;98192.97;;;28.42;39.06
15694;BME280;7947;48.834;9.132;2023-07-16T15:49:46;98191.78;;;28.33;38.40
15694;BME280;7947;48.834;9.132;2023-07-16T15:52:49;98201.59;;;28.20;39.46
15694;BME280;7947;48.834;9.132;2023-07-16T15:55:53;98194.47;;;28.12;39.63
15694;BME280;7947;48.834;9.132;2023-07-16T15:58:55;98187.72;;;27.99;38.57
15694;BME280;7947;48.834;9.132;2023-07-16T16:01:58;98190.00;;;27.90;39.80
15694;BME280;7947;48.834;9.132;2023-07-16T16:05:03;98190.34;;;27.78;39.90
15694;BME280;7947;48.834;9.132;2023-07-16T16:08:12;98182.44;;;27.73;40.04
15694;BME280;7947;48.834;9.132;2023-07-16T16:11:16;98188.72;;;27.70;39.91
15694;BME280;7947;48.834;9.132;2023-07-16T16:14:20;98188.66;;;27.59;38.49
15694;BME280;7947;48.834;9.132;2023-07-16T16:17:23;98191.78;;;27.54;40.57
15694;BME280;7947;48.834;9.132;2023-07-16T16:20:27;98196.53;;;27.60;38.99
15694;BME280;7947;48.834;9.132;2023-07-16T16:23:30;98194.88;;;27.49;39.41
15694;BME280;7947;48.834;9.132;2023-07-16T16:26:33;98194.47;;;27.47;39.41